Time;durP1;ratioP1;P1;durP2;ratioP2;P2;SDS_P1;SDS_P2;PMS_P1;PMS_P2;Temp;Humidity;BMP_temperature;BMP_pressure;BME280_temperature;BME280_humidity;BME280_pressure;Samples;Min_cycle;Max_cycle;Signal;HPM_P1;HPM_P2
2022/04/24 00:01:58;;;;;;;7.22;5.78;;;;;;;12.89;47.56;100185.69;5086591;28;20063;-77
2022/04/24 00:04:26;;;;;;;10.40;5.95;;;;;;;12.81;47.65;100181.69;5093595;28;20575;-77
2022/04/24 00:06:53;;;;;;;7.93;5.97;;;;;;;12.69;47.78;100176.97;5090444;28;20066;-77
2022/04/24 00:09:19;;;;;;;6.30;5.38;;;;;;;12.58;48.48;100174.81;5090921;28;20087;-76
2022/04/24 00:11:45;;;;;;;7.30;6.10;;;;;;;12.52;49.01;100172.47;5078288;28;20384;-77
2022/04/24 00:14:10;;;;;;;6.65;5.90;;;;;;;12.48;48.42;100171.75;5084388;28;20043;-77
2022/04/24 00:16:39;;;;;;;6.53;5.75;;;;;;;12.34;48.75;100172.31;5092983;28;20028;-77
2022/04/24 00:19:05;;;;;;;7.20;5.97;;;;;;;12.32;49.38;100181.97;5093481;28;20157;-76
2022/04/24 00:21:31;;;;;;;6.35;5.68;;;;;;;12.24;49.63;100172.78;5076926;28;20031;-77
2022/04/24 00:23:57;;;;;;;7.03;6.30;;;;;;;12.14;49.78;100170.53;5085580;28;20028;-77
2022/04/24 00:26:22;;;;;;;7.28;6.53;;;;;;;12.02;50.25;100167.56;5077947;28;20377;-77
2022/04/24 00:28:48;;;;;;;7.72;6.60;;;;;;;11.89;50.43;100160.19;5086557;28;20028;-77
2022/04/24 00:31:13;;;;;;;8.85;6.10;;;;;;;11.83;50.81;100159.56;5074003;28;20505;-76
2022/04/24 00:33:38;;;;;;;7.22;6.13;;;;;;;11.77;50.50;100155.47;5088138;28;20036;-77
2022/04/24 00:36:04;;;;;;;8.68;6.20;;;;;;;11.65;51.25;100155.91;5085080;28;20162;-76
2022/04/24 00:38:32;;;;;;;6.93;6.07;;;;;;;11.54;51.85;100163.31;5079236;28;20032;-76
2022/04/24 00:40:57;;;;;;;7.45;6.43;;;;;;;11.55;51.05;100165.03;5093044;28;20490;-77
2022/04/24 00:43:23;;;;;;;7.03;5.80;;;;;;;11.45;51.65;100162.75;5079224;28;20028;-77
2022/04/24 00:45:53;;;;;;;6.55;5.75;;;;;;;11.41;52.27;100162.91;5090443;28;20040;-77
2022/04/24 00:48:18;;;;;;;7.32;6.10;;;;;;;11.36;52.87;100163.09;5091847;28;20028;-76
2022/04/24 00:50:44;;;;;;;7.57;6.18;;;;;;;11.29;53.88;100156.41;5080189;28;20020;-77
2022/04/24 00:53:10;;;;;;;9.90;6.20;;;;;;;11.22;53.83;100154.94;5073503;28;20031;-77
2022/04/24 00:55:36;;;;;;;8.13;6.57;;;;;;;11.23;53.55;100161.84;5079402;28;20032;-76
2022/04/24 00:58:02;;;;;;;7.30;6.53;;;;;;;11.14;53.53;100157.81;5084560;28;20371;-76
2022/04/24 01:00:27;;;;;;;7.22;6.45;;;;;;;11.10;54.03;100155.38;5075116;28;20402;-76
2022/04/24 01:02:52;;;;;;;8.02;7.20;;;;;;;11.02;53.79;100161.75;5076764;28;20039;-76
2022/04/24 01:05:18;;;;;;;8.00;6.38;;;;;;;10.99;54.01;100161.00;5077087;28;20028;-76
2022/04/24 01:07:43;;;;;;;8.95;7.15;;;;;;;10.97;54.17;100163.66;5086350;28;20077;-76
2022/04/24 01:10:09;;;;;;;8.52;6.70;;;;;;;10.94;54.72;100158.53;5088734;28;20036;-76
2022/04/24 01:12:34;;;;;;;9.73;7.32;;;;;;;10.90;55.20;100167.38;5074369;28;20063;-76
2022/04/24 01:14:59;;;;;;;7.97;6.75;;;;;;;10.81;55.09;100165.09;5074951;28;20464;-76
2022/04/24 01:17:26;;;;;;;7.97;7.07;;;;;;;10.78;55.54;100160.84;5089121;28;20119;-76
2022/04/24 01:19:53;;;;;;;8.02;7.10;;;;;;;10.73;55.87;100164.53;5082844;28;20472;-77
2022/04/24 01:22:18;;;;;;;8.80;7.30;;;;;;;10.70;55.14;100159.41;5088107;28;20035;-77
2022/04/24 01:24:43;;;;;;;10.52;7.15;;;;;;;10.67;55.60;100164.75;5091317;28;20020;-76
2022/04/24 01:27:09;;;;;;;9.57;6.95;;;;;;;10.64;56.21;100164.84;5077795;28;20032;-76
2022/04/24 01:29:34;;;;;;;9.00;6.90;;;;;;;10.54;56.20;100172.97;5074775;28;20111;-76
2022/04/24 01:31:59;;;;;;;7.72;6.88;;;;;;;10.51;56.34;100170.47;5087342;28;20032;-77
2022/04/24 01:34:24;;;;;;;7.75;6.95;;;;;;;10.46;56.59;100169.78;5087414;28;20050;-76
2022/04/24 01:36:50;;;;;;;9.32;7.72;;;;;;;10.41;56.53;100170.84;5091447;28;20078;-77
2022/04/24 01:39:15;;;;;;;9.02;7.32;;;;;;;10.37;57.08;100164.88;5078522;28;20028;-76
2022/04/24 01:41:41;;;;;;;8.38;7.03;;;;;;;10.32;57.44;100167.63;5073423;28;20443;-77
2022/04/24 01:44:06;;;;;;;9.00;7.15;;;;;;;10.33;57.40;100160.66;5074600;28;20025;-76
2022/04/24 01:46:32;;;;;;;8.70;7.53;;;;;;;10.27;57.35;100161.72;5080358;28;20055;-76
2022/04/24 01:48:57;;;;;;;12.40;7.88;;;;;;;10.22;57.71;100162.75;5090757;28;20082;-77
2022/04/24 01:51:22;;;;;;;9.07;7.47;;;;;;;10.27;57.61;100160.88;5091470;28;20115;-77
2022/04/24 01:53:48;;;;;;;8.20;7.22;;;;;;;10.24;57.99;100158.34;5079759;28;20033;-77
2022/04/24 01:56:13;;;;;;;8.68;7.47;;;;;;;10.21;57.28;100166.25;5079246;28;20106;-77
2022/04/24 01:58:39;;;;;;;9.55;7.53;;;;;;;10.16;57.36;100168.97;5080478;28;20510;-77
2022/04/24 02:01:05;;;;;;;9.95;7.72;;;;;;;10.22;57.30;100171.41;5074093;28;20082;-77
2022/04/24 02:03:31;;;;;;;8.38;7.10;;;;;;;10.19;56.81;100168.88;5088184;28;20043;-77
2022/04/24 02:05:57;;;;;;;9.50;7.68;;;;;;;10.14;57.83;100168.19;5081235;28;20024;-77
2022/04/24 02:08:23;;;;;;;8.77;7.43;;;;;;;10.08;57.03;100166.63;5073594;28;20122;-77
2022/04/24 02:10:49;;;;;;;8.35;7.45;;;;;;;10.10;57.56;100171.78;5088833;28;20111;-76
2022/04/24 02:13:15;;;;;;;8.80;7.50;;;;;;;10.08;57.70;100171.84;5088446;28;20044;-76
2022/04/24 02:15:40;;;;;;;9.50;7.65;;;;;;;10.06;57.99;100173.63;5084331;28;20028;-76
2022/04/24 02:18:06;;;;;;;9.68;7.72;;;;;;;10.02;57.83;100161.63;5073884;28;20037;-76
2022/04/24 02:20:31;;;;;;;9.07;7.53;;;;;;;9.96;58.02;100155.75;5073496;28;20032;-76
2022/04/24 02:22:58;;;;;;;8.90;7.93;;;;;;;9.98;57.74;100164.38;5083366;28;20043;-76
2022/04/24 02:25:24;;;;;;;8.15;7.30;;;;;;;10.01;57.48;100170.34;5085411;28;20483;-76
2022/04/24 02:27:50;;;;;;;9.40;8.02;;;;;;;10.03;58.01;100163.31;5091678;28;20878;-76
2022/04/24 02:30:15;;;;;;;9.57;8.40;;;;;;;10.08;58.00;100164.03;5087881;28;20047;-76
2022/04/24 02:32:41;;;;;;;9.27;7.63;;;;;;;10.11;57.39;100163.09;5087441;28;20417;-77
2022/04/24 02:35:06;;;;;;;9.40;8.35;;;;;;;10.12;57.75;100164.78;5078431;28;20028;-76
2022/04/24 02:37:32;;;;;;;9.85;7.43;;;;;;;10.13;58.45;100168.25;5077785;28;20116;-76
2022/04/24 02:40:00;;;;;;;8.63;7.35;;;;;;;10.22;57.40;100162.75;5092424;28;20361;-77
2022/04/24 02:42:25;;;;;;;10.75;7.97;;;;;;;10.18;58.39;100163.75;5092322;28;20032;-76
2022/04/24 02:44:50;;;;;;;11.13;8.55;;;;;;;10.21;57.71;100171.47;5091063;28;20047;-76
2022/04/24 02:47:16;;;;;;;11.07;7.85;;;;;;;10.26;56.94;100166.97;5087873;28;20084;-77
2022/04/24 02:49:41;;;;;;;9.98;8.75;;;;;;;10.25;57.46;100171.31;5091626;28;20035;-77
2022/04/24 02:52:07;;;;;;;10.00;8.30;;;;;;;10.31;57.18;100165.91;5088904;28;20518;-77
2022/04/24 02:54:32;;;;;;;9.77;8.23;;;;;;;10.37;56.56;100166.63;5081353;28;20028;-76
2022/04/24 02:56:57;;;;;;;12.18;8.80;;;;;;;10.28;57.29;100163.41;5079417;28;20077;-76
2022/04/24 02:59:25;;;;;;;12.10;8.63;;;;;;;10.27;56.81;100166.09;5085780;28;20514;-77
2022/04/24 03:01:51;;;;;;;10.15;8.82;;;;;;;10.18;57.44;100164.59;5072874;28;20093;-76
2022/04/24 03:04:16;;;;;;;10.40;8.45;;;;;;;10.25;57.33;100167.84;5071934;28;20059;-76
2022/04/24 03:06:42;;;;;;;10.48;8.65;;;;;;;10.23;57.35;100165.28;5077415;28;20047;-76
2022/04/24 03:09:07;;;;;;;12.15;8.38;;;;;;;10.26;57.09;100167.81;5086540;28;20024;-76
2022/04/24 03:11:33;;;;;;;10.73;8.73;;;;;;;10.26;57.03;100174.78;5084786;28;20020;-76
2022/04/24 03:13:58;;;;;;;10.23;8.98;;;;;;;10.23;57.17;100169.63;5071322;28;20467;-77
2022/04/24 03:16:24;;;;;;;11.25;9.07;;;;;;;10.20;57.74;100169.72;5078694;28;20024;-76
2022/04/24 03:18:49;;;;;;;10.63;9.52;;;;;;;10.15;57.61;100176.88;5091951;28;20930;-76
2022/04/24 03:21:14;;;;;;;11.23;9.48;;;;;;;10.12;58.00;100175.22;5089383;28;20055;-76
2022/04/24 03:23:40;;;;;;;10.90;9.73;;;;;;;10.00;58.02;100167.78;5090243;28;20373;-76
2022/04/24 03:26:05;;;;;;;12.30;9.93;;;;;;;10.02;58.02;100172.03;5082572;28;20026;-76
2022/04/24 03:28:31;;;;;;;10.48;9.38;;;;;;;9.95;58.37;100175.75;5091127;28;20050;-76
2022/04/24 03:30:56;;;;;;;10.43;9.25;;;;;;;9.87;58.40;100169.91;5075338;28;20060;-76
2022/04/24 03:33:21;;;;;;;12.68;9.82;;;;;;;9.77;58.32;100169.34;5071924;28;20062;-76
2022/04/24 03:35:47;;;;;;;12.13;9.43;;;;;;;9.65;58.79;100164.53;5071033;28;20029;-76
2022/04/24 03:38:12;;;;;;;11.43;10.15;;;;;;;9.67;59.04;100180.94;5071515;28;20451;-76
2022/04/24 03:40:37;;;;;;;12.45;10.02;;;;;;;9.53;59.95;100178.75;5088457;28;20036;-76
2022/04/24 03:43:02;;;;;;;10.93;9.60;;;;;;;9.54;59.56;100185.66;5072113;28;20032;-76
2022/04/24 03:45:28;;;;;;;11.80;9.55;;;;;;;9.43;59.77;100179.94;5082425;28;20024;-77
2022/04/24 03:47:53;;;;;;;13.63;10.32;;;;;;;9.36;60.64;100183.63;5087285;28;20480;-77
2022/04/24 03:50:21;;;;;;;10.65;9.55;;;;;;;9.28;60.65;100180.38;5073261;28;20029;-76
2022/04/24 03:52:47;;;;;;;10.85;9.70;;;;;;;9.24;60.62;100181.34;5089260;28;20057;-76
2022/04/24 03:55:13;;;;;;;13.40;10.52;;;;;;;9.16;61.13;100181.59;5090279;28;20375;-77
2022/04/24 03:57:38;;;;;;;11.48;9.93;;;;;;;9.11;61.71;100184.28;5077960;28;20029;-76
2022/04/24 04:00:05;;;;;;;10.70;9.60;;;;;;;9.06;62.00;100180.13;5071084;28;20028;-76
2022/04/24 04:02:31;;;;;;;13.10;10.30;;;;;;;9.03;61.93;100177.63;5075345;28;20028;-76
2022/04/24 04:04:57;;;;;;;13.35;10.30;;;;;;;8.96;61.99;100187.34;5084469;28;20024;-76
2022/04/24 04:07:22;;;;;;;12.35;10.13;;;;;;;8.91;62.21;100187.44;5071152;28;20477;-76
2022/04/24 04:09:48;;;;;;;11.32;10.02;;;;;;;8.88;62.76;100177.13;5074106;28;20206;-76
2022/04/24 04:12:13;;;;;;;11.85;10.07;;;;;;;8.84;62.86;100178.09;5080754;28;20055;-76
2022/04/24 04:14:38;;;;;;;12.93;9.88;;;;;;;8.77;63.96;100186.97;5090986;28;20064;-76
2022/04/24 04:17:04;;;;;;;11.88;10.15;;;;;;;8.73;63.49;100185.34;5085539;28;20036;-76
2022/04/24 04:19:29;;;;;;;11.88;10.55;;;;;;;8.66;64.17;100184.66;5076284;28;20040;-76
2022/04/24 04:21:54;;;;;;;12.13;10.15;;;;;;;8.65;64.33;100188.13;5084349;28;20035;-76
2022/04/24 04:24:20;;;;;;;12.85;10.43;;;;;;;8.62;64.91;100188.22;5088072;28;20369;-76
2022/04/24 04:26:45;;;;;;;13.30;11.15;;;;;;;8.61;64.60;100191.72;5079948;28;20040;-76
2022/04/24 04:29:11;;;;;;;14.15;11.10;;;;;;;8.60;64.68;100192.59;5079719;28;20023;-76
2022/04/24 04:31:36;;;;;;;14.27;10.38;;;;;;;8.59;64.66;100193.47;5092605;28;20032;-76
2022/04/24 04:34:02;;;;;;;15.02;11.35;;;;;;;8.56;64.95;100193.56;5080533;28;20138;-76
2022/04/24 04:36:27;;;;;;;11.90;10.52;;;;;;;8.53;65.81;100193.63;5075187;28;20025;-76
2022/04/24 04:38:52;;;;;;;14.40;10.82;;;;;;;8.52;65.02;100202.31;5074358;28;20013;-76
2022/04/24 04:41:18;;;;;;;11.65;10.40;;;;;;;8.58;65.38;100206.53;5076738;28;20020;-76
2022/04/24 04:43:43;;;;;;;12.88;10.73;;;;;;;8.53;65.76;100201.44;5073642;28;20078;-76
2022/04/24 04:46:08;;;;;;;13.45;10.43;;;;;;;8.51;65.76;100204.97;5076079;28;20024;-76
2022/04/24 04:48:34;;;;;;;13.95;10.23;;;;;;;8.58;65.35;100203.94;5074374;28;20033;-76
2022/04/24 04:50:59;;;;;;;15.48;10.15;;;;;;;8.61;65.47;100209.91;5082142;28;20020;-76
2022/04/24 04:53:25;;;;;;;16.35;10.13;;;;;;;8.52;65.71;100211.88;5079548;28;20039;-76
2022/04/24 04:55:50;;;;;;;12.38;10.05;;;;;;;8.52;65.57;100211.88;5088740;28;20111;-76
2022/04/24 04:58:16;;;;;;;14.80;10.85;;;;;;;8.52;65.47;100209.28;5091038;28;20434;-76
2022/04/24 05:00:41;;;;;;;13.85;10.00;;;;;;;8.56;65.85;100224.72;5088765;28;20041;-76
2022/04/24 05:03:07;;;;;;;16.27;10.05;;;;;;;8.55;66.31;100217.00;5086135;28;20111;-75
2022/04/24 05:05:32;;;;;;;13.80;9.63;;;;;;;8.59;65.94;100213.41;5086548;28;20028;-76
2022/04/24 05:07:58;;;;;;;12.00;9.45;;;;;;;8.56;66.25;100222.13;5088837;28;20025;-76
2022/04/24 05:10:23;;;;;;;13.15;9.80;;;;;;;8.60;66.89;100229.00;5082442;28;20032;-76
2022/04/24 05:12:49;;;;;;;15.73;10.82;;;;;;;8.57;66.38;100223.88;5093101;28;20077;-76
2022/04/24 05:15:15;;;;;;;13.27;10.02;;;;;;;8.61;66.91;100237.63;5075475;28;20115;-76
2022/04/24 05:17:42;;;;;;;15.15;10.05;;;;;;;8.62;66.98;100240.19;5084898;28;20483;-75
2022/04/24 05:20:10;;;;;;;13.80;9.85;;;;;;;8.61;66.42;100235.88;5082803;28;20642;-76
2022/04/24 05:22:36;;;;;;;12.88;9.75;;;;;;;8.67;66.35;100238.31;5091946;28;20108;-76
2022/04/24 05:25:02;;;;;;;11.80;9.80;;;;;;;8.70;66.22;100241.72;5085133;28;20056;-76
2022/04/24 05:27:27;;;;;;;11.00;9.65;;;;;;;8.74;66.55;100245.97;5089976;28;20526;-76
2022/04/24 05:29:53;;;;;;;14.88;9.57;;;;;;;8.76;66.51;100244.16;5082290;28;20371;-76
2022/04/24 05:32:18;;;;;;;12.60;9.57;;;;;;;8.76;66.01;100224.22;5075601;28;20195;-76
2022/04/24 05:34:44;;;;;;;13.98;9.55;;;;;;;8.88;66.27;100252.50;5073787;28;20036;-76
2022/04/24 05:37:09;;;;;;;16.33;9.88;;;;;;;8.91;65.27;100249.84;5089810;28;20039;-76
2022/04/24 05:39:35;;;;;;;12.57;8.18;;;;;;;8.95;65.79;100248.00;5079138;28;20032;-76
2022/04/24 05:42:01;;;;;;;13.98;9.02;;;;;;;8.95;65.34;100240.19;5094034;28;20103;-76
2022/04/24 05:44:26;;;;;;;11.70;8.73;;;;;;;9.01;65.57;100249.59;5083658;28;20425;-76
2022/04/24 05:46:52;;;;;;;10.43;9.00;;;;;;;9.06;65.01;100248.59;5081056;28;20032;-76
2022/04/24 05:49:18;;;;;;;11.00;8.48;;;;;;;9.11;64.76;100249.31;5072733;28;20028;-76
2022/04/24 05:51:43;;;;;;;14.32;8.60;;;;;;;9.13;65.34;100249.28;5076870;28;20037;-76
2022/04/24 05:54:12;;;;;;;11.18;9.20;;;;;;;9.18;64.24;100260.38;5073160;28;20392;-76
2022/04/24 05:56:40;;;;;;;10.05;8.73;;;;;;;9.22;64.28;100248.16;5073949;28;20029;-76
2022/04/24 05:59:05;;;;;;;11.73;8.80;;;;;;;9.26;64.15;100258.44;5074315;28;20032;-76
2022/04/24 06:01:31;;;;;;;10.43;8.45;;;;;;;9.32;63.73;100258.28;5075976;28;20040;-76
2022/04/24 06:03:56;;;;;;;11.52;9.07;;;;;;;9.32;64.30;100252.25;5077305;28;20352;-76
2022/04/24 06:06:21;;;;;;;13.93;9.63;;;;;;;9.39;63.23;100269.38;5070960;28;20046;-76
2022/04/24 06:08:46;;;;;;;10.25;8.80;;;;;;;9.38;63.88;100262.44;5073948;28;20383;-77
2022/04/24 06:11:12;;;;;;;10.70;9.27;;;;;;;9.42;64.14;100263.22;5080421;28;20083;-76
2022/04/24 06:13:39;;;;;;;13.65;8.55;;;;;;;9.45;62.82;100266.59;5075803;28;20478;-76
2022/04/24 06:16:04;;;;;;;14.93;8.82;;;;;;;9.56;63.31;100271.50;5074085;28;20028;-76
2022/04/24 06:18:29;;;;;;;10.63;8.25;;;;;;;9.54;62.78;100266.31;5072064;28;20033;-76
2022/04/24 06:20:55;;;;;;;11.82;8.90;;;;;;;9.66;62.59;100272.09;5075326;28;20412;-76
2022/04/24 06:23:20;;;;;;;10.25;8.27;;;;;;;9.69;62.74;100277.22;5070181;28;20347;-76
2022/04/24 06:25:46;;;;;;;13.55;8.63;;;;;;;9.76;62.32;100263.97;5074715;28;20032;-75
2022/04/24 06:28:11;;;;;;;10.80;8.27;;;;;;;9.80;61.37;100255.16;5078068;28;20471;-75
2022/04/24 06:30:40;;;;;;;13.50;8.35;;;;;;;9.88;61.48;100264.50;5075403;28;20032;-75
2022/04/24 06:33:14;;;;;;;13.98;8.45;;;;;;;9.91;62.27;100272.22;5076999;28;20522;-76
2022/04/24 06:35:41;;;;;;;11.52;8.88;;;;;;;9.98;62.08;100272.00;5078929;28;20024;-76
2022/04/24 06:38:07;;;;;;;14.43;9.32;;;;;;;10.02;61.00;100280.56;5071177;28;20024;-76
2022/04/24 06:40:32;;;;;;;10.25;8.50;;;;;;;10.00;61.35;100274.53;5075406;28;20465;-76
2022/04/24 06:43:00;;;;;;;9.52;7.90;;;;;;;10.07;61.12;100273.44;5073101;28;20468;-75
2022/04/24 06:45:33;;;;;;;13.20;9.10;;;;;;;10.19;60.97;100277.44;5087047;28;20043;-76
2022/04/24 06:48:01;;;;;;;10.20;8.63;;;;;;;10.18;61.40;100281.81;5071458;28;20032;-75
2022/04/24 06:50:29;;;;;;;9.88;8.23;;;;;;;10.22;60.72;100280.81;5074865;28;20111;-75
2022/04/24 06:53:17;;;;;;;10.38;8.98;;;;;;;10.31;60.58;100284.91;5068732;28;20123;-75
2022/04/24 06:55:44;;;;;;;11.13;8.43;;;;;;;10.39;59.57;100289.88;5077195;28;20024;-76
2022/04/24 06:58:11;;;;;;;11.57;8.45;;;;;;;10.37;59.62;100276.06;5081551;28;20024;-76
2022/04/24 07:00:39;;;;;;;9.02;8.05;;;;;;;10.48;59.43;100276.56;5071217;28;20035;-76
2022/04/24 07:03:24;;;;;;;9.95;8.10;;;;;;;10.56;59.04;100287.59;5083346;28;20364;-75
2022/04/24 07:05:53;;;;;;;9.98;8.65;;;;;;;10.58;59.77;100277.13;5071212;28;20035;-74
2022/04/24 07:08:19;;;;;;;10.23;8.60;;;;;;;10.65;58.63;100289.06;5079143;28;20032;-73
2022/04/24 07:10:44;;;;;;;14.02;7.95;;;;;;;10.63;58.46;100270.03;5087307;28;20021;-74
2022/04/24 07:13:10;;;;;;;12.57;8.63;;;;;;;10.73;58.37;100289.66;5087094;28;20039;-74
2022/04/24 07:15:36;;;;;;;10.60;8.55;;;;;;;10.80;58.49;100282.50;5090184;28;20067;-73
2022/04/24 07:18:03;;;;;;;12.02;8.48;;;;;;;10.88;58.70;100285.69;5084509;28;20039;-73
2022/04/24 07:20:29;;;;;;;10.65;8.93;;;;;;;10.94;58.08;100283.72;5088599;28;20028;-74
2022/04/24 07:23:02;;;;;;;9.68;8.65;;;;;;;11.05;58.36;100279.88;5091901;28;20027;-74
2022/04/24 07:25:33;;;;;;;11.25;9.35;;;;;;;11.16;58.24;100275.16;5089550;28;20077;-77
2022/04/24 07:27:58;;;;;;;12.45;9.45;;;;;;;11.27;57.12;100280.84;5087626;28;20380;-83
2022/04/24 07:30:24;;;;;;;10.10;9.00;;;;;;;11.36;57.61;100285.75;5089212;28;20039;-74
2022/04/24 07:32:54;;;;;;;13.00;9.25;;;;;;;11.45;57.23;100289.81;5090108;28;20024;-75
2022/04/24 07:35:22;;;;;;;10.90;9.23;;;;;;;11.54;57.23;100294.66;5090187;28;20118;-74
2022/04/24 07:37:47;;;;;;;11.07;8.93;;;;;;;11.58;56.04;100287.59;5088076;28;20173;-76
2022/04/24 07:40:15;;;;;;;11.70;9.77;;;;;;;11.61;55.84;100283.13;5075278;28;20106;-75
2022/04/24 07:42:50;;;;;;;18.85;9.40;;;;;;;11.72;55.67;100293.16;5082551;28;20058;-74
2022/04/24 07:45:23;;;;;;;12.80;9.18;;;;;;;11.78;56.21;100292.94;5074607;28;20066;-74
2022/04/24 07:47:52;;;;;;;10.98;9.32;;;;;;;11.82;55.13;100284.06;5079823;28;20020;-73
2022/04/24 07:50:21;;;;;;;13.55;9.23;;;;;;;11.94;55.18;100294.09;5089673;28;20027;-74
2022/04/24 07:52:48;;;;;;;12.93;9.00;;;;;;;12.07;54.85;100291.03;5089542;28;20482;-74
2022/04/24 07:55:17;;;;;;;11.00;9.63;;;;;;;12.07;55.61;100293.66;5094842;28;20028;-74
2022/04/24 07:57:43;;;;;;;11.48;9.45;;;;;;;12.11;53.87;100287.38;5082966;28;20035;-75
2022/04/24 08:00:09;;;;;;;11.88;9.30;;;;;;;12.18;53.29;100294.91;5077396;28;20399;-75
2022/04/24 08:03:01;;;;;;;12.32;9.45;;;;;;;12.28;53.87;100300.63;5090113;28;20426;-74
2022/04/24 08:05:46;;;;;;;12.13;9.35;;;;;;;12.35;53.46;100304.72;5076157;28;20052;-74
2022/04/24 08:08:14;;;;;;;12.65;9.25;;;;;;;12.45;53.21;100304.34;5082104;28;20042;-74
2022/04/24 08:10:42;;;;;;;11.48;9.35;;;;;;;12.49;52.96;100300.69;5090505;28;20082;-75
2022/04/24 08:13:08;;;;;;;12.00;9.98;;;;;;;12.51;53.11;100306.72;5093298;28;20052;-75
2022/04/24 08:15:35;;;;;;;12.43;8.98;;;;;;;12.60;53.29;100308.97;5090116;28;20028;-74
2022/04/24 08:18:01;;;;;;;11.85;9.23;;;;;;;12.70;51.76;100305.06;5088358;28;20028;-74
2022/04/24 08:20:27;;;;;;;12.30;9.70;;;;;;;12.76;51.37;100298.75;5095295;28;20081;-75
2022/04/24 08:22:54;;;;;;;13.02;9.10;;;;;;;12.84;52.68;100302.72;5092841;28;20028;-74
2022/04/24 08:25:22;;;;;;;15.57;9.13;;;;;;;13.01;51.81;100301.19;5094127;28;20031;-73
2022/04/24 08:27:48;;;;;;;11.63;8.85;;;;;;;13.16;53.60;100302.31;5094908;28;20028;-74
2022/04/24 08:30:15;;;;;;;11.05;9.02;;;;;;;13.30;51.80;100306.06;5094374;28;20038;-74
2022/04/24 08:32:42;;;;;;;13.02;9.38;;;;;;;13.39;50.68;100303.97;5094919;28;20032;-74
2022/04/24 08:35:10;;;;;;;11.43;8.95;;;;;;;13.44;50.18;100299.34;5091707;28;20081;-74
2022/04/24 08:37:35;;;;;;;12.65;9.75;;;;;;;13.57;49.88;100309.25;5073863;28;20468;-74
2022/04/24 08:40:04;;;;;;;14.10;9.27;;;;;;;13.73;49.97;100313.78;5080440;28;20106;-74
2022/04/24 08:42:30;;;;;;;13.02;10.13;;;;;;;13.81;50.29;100309.91;5084895;28;20116;-75
2022/04/24 08:44:56;;;;;;;15.32;10.20;;;;;;;13.90;48.35;100310.44;5074761;28;20028;-74
2022/04/24 08:47:23;;;;;;;13.77;9.45;;;;;;;13.90;49.56;100299.94;5082900;28;20150;-76
2022/04/24 08:49:48;;;;;;;14.20;10.00;;;;;;;14.05;49.96;100307.94;5091923;28;20550;-76
2022/04/24 08:52:14;;;;;;;13.10;9.88;;;;;;;14.25;50.06;100295.66;5075814;28;20089;-75
2022/04/24 08:54:41;;;;;;;14.73;10.65;;;;;;;14.38;47.90;100303.78;5089315;28;20111;-75
2022/04/24 08:57:08;;;;;;;14.25;10.50;;;;;;;14.47;48.31;100303.38;5073311;28;20492;-77
2022/04/24 08:59:34;;;;;;;13.43;10.25;;;;;;;14.58;46.84;100303.72;5074802;28;20024;-75
2022/04/24 09:01:59;;;;;;;13.45;9.52;;;;;;;14.64;47.91;100307.81;5074388;28;20020;-76
2022/04/24 09:04:26;;;;;;;13.45;9.00;;;;;;;14.69;46.69;100305.84;5072583;28;20031;-76
2022/04/24 09:06:59;;;;;;;13.35;10.52;;;;;;;14.77;46.43;100314.16;5073391;28;20031;-73
2022/04/24 09:09:25;;;;;;;13.38;9.95;;;;;;;14.79;46.14;100312.31;5079106;28;20040;-74
2022/04/24 09:11:50;;;;;;;14.27;9.95;;;;;;;14.84;45.65;100301.59;5092395;28;20545;-76
2022/04/24 09:14:18;;;;;;;16.50;11.25;;;;;;;14.89;45.46;100302.22;5091593;28;20107;-76
2022/04/24 09:16:50;;;;;;;13.80;10.60;;;;;;;14.96;45.31;100320.19;5078182;28;20029;-76
2022/04/24 09:19:22;;;;;;;12.45;10.35;;;;;;;15.06;45.46;100311.88;5082911;28;20418;-75
2022/04/24 09:21:48;;;;;;;13.25;10.63;;;;;;;15.17;46.31;100299.91;5076510;28;20388;-77
2022/04/24 09:24:14;;;;;;;11.90;10.35;;;;;;;15.34;45.81;100308.69;5079681;28;20020;-76
2022/04/24 09:26:56;;;;;;;13.25;10.20;;;;;;;15.47;44.73;100301.88;5073983;28;20545;-82
2022/04/24 09:29:22;;;;;;;11.75;8.95;;;;;;;15.63;44.63;100308.03;5084432;28;20650;-75
2022/04/24 09:31:48;;;;;;;13.18;10.10;;;;;;;15.75;44.00;100303.06;5072347;28;20111;-75
2022/04/24 09:34:16;;;;;;;12.38;10.85;;;;;;;15.80;42.71;100306.31;5073164;28;20492;-75
2022/04/24 09:36:42;;;;;;;13.60;9.85;;;;;;;15.81;43.64;100302.75;5090345;28;20027;-75
2022/04/24 09:39:07;;;;;;;14.27;10.00;;;;;;;15.89;43.63;100314.56;5074589;28;20491;-75
2022/04/24 09:41:33;;;;;;;14.68;10.68;;;;;;;15.99;42.85;100300.88;5085707;28;20502;-75
2022/04/24 09:44:10;;;;;;;14.05;10.82;;;;;;;16.07;43.56;100307.44;5074278;28;20020;-75
2022/04/24 09:46:36;;;;;;;14.05;10.80;;;;;;;16.09;43.16;100302.94;5073213;28;20179;-75
2022/04/24 09:49:02;;;;;;;14.18;10.75;;;;;;;16.23;43.34;100312.69;5073467;28;20021;-75
2022/04/24 09:51:28;;;;;;;17.45;11.68;;;;;;;16.31;42.87;100307.84;5087180;28;20055;-75
2022/04/24 09:53:58;;;;;;;16.25;11.43;;;;;;;16.43;42.50;100301.06;5087943;28;20024;-75
2022/04/24 09:56:26;;;;;;;15.30;11.45;;;;;;;16.48;41.47;100304.31;5049953;28;20491;-75
2022/04/24 09:58:51;;;;;;;13.45;11.57;;;;;;;16.50;41.60;100305.03;5072476;28;20115;-76
2022/04/24 10:01:18;;;;;;;13.00;11.55;;;;;;;16.61;41.38;100305.31;5071994;28;20108;-76
2022/04/24 10:03:45;;;;;;;15.13;12.15;;;;;;;16.70;42.04;100308.31;5072261;28;20078;-76
2022/04/24 10:06:11;;;;;;;14.35;11.30;;;;;;;16.73;40.87;100301.09;5076767;28;20024;-76
2022/04/24 10:08:38;;;;;;;13.02;11.20;;;;;;;16.77;40.31;100304.44;5090391;28;20491;-75
2022/04/24 10:11:05;;;;;;;13.63;10.98;;;;;;;16.84;42.38;100300.53;5088691;28;20024;-75
2022/04/24 10:13:34;;;;;;;11.60;10.35;;;;;;;16.89;41.51;100309.00;5083846;28;20050;-75
2022/04/24 10:16:13;;;;;;;17.23;11.38;;;;;;;16.94;40.92;100312.22;5084770;28;20079;-75
2022/04/24 10:18:54;;;;;;;16.15;11.40;;;;;;;17.06;39.99;100322.00;5073899;28;20468;-75
2022/04/24 10:21:59;;;;;;;14.13;12.00;;;;;;;17.02;40.53;100307.34;5076014;28;20028;-75
2022/04/24 10:24:24;;;;;;;12.93;10.93;;;;;;;17.13;40.02;100308.47;5080674;28;20036;-75
2022/04/24 10:26:57;;;;;;;20.58;11.98;;;;;;;17.28;39.65;100304.94;5089718;28;20042;-76
2022/04/24 10:29:23;;;;;;;14.73;12.13;;;;;;;17.31;39.39;100317.94;5091169;28;20389;-76
2022/04/24 10:31:49;;;;;;;15.93;11.88;;;;;;;17.34;38.97;100309.84;5092733;28;20048;-76
2022/04/24 10:34:16;;;;;;;16.52;12.48;;;;;;;17.39;39.18;100313.03;5092542;28;20024;-75
2022/04/24 10:36:58;;;;;;;16.83;12.15;;;;;;;17.56;39.67;100317.31;5091464;28;20484;-76
2022/04/24 10:39:29;;;;;;;15.93;11.43;;;;;;;17.86;39.59;100311.97;5092750;28;20016;-76
2022/04/24 10:41:57;;;;;;;12.35;10.70;;;;;;;18.01;38.71;100318.91;5087798;28;20036;-77
2022/04/24 10:44:23;;;;;;;17.50;11.40;;;;;;;18.01;38.16;100305.72;5074803;28;20510;-76
2022/04/24 10:46:49;;;;;;;13.85;10.93;;;;;;;18.03;37.44;100308.28;5090828;28;20059;-75
2022/04/24 10:49:16;;;;;;;13.57;10.73;;;;;;;18.10;38.05;100311.38;5076743;28;20032;-75
2022/04/24 10:51:44;;;;;;;13.95;9.80;;;;;;;18.13;37.01;100313.81;5074752;28;20047;-75
2022/04/24 10:54:13;;;;;;;12.68;9.77;;;;;;;18.18;38.05;100311.72;5059113;28;20041;-75
2022/04/24 10:56:41;;;;;;;10.63;9.52;;;;;;;18.41;36.75;100318.16;5080136;28;20125;-75
2022/04/24 10:59:10;;;;;;;12.63;9.20;;;;;;;18.53;35.96;100317.38;5087772;28;20084;-75
2022/04/24 11:01:37;;;;;;;11.80;9.65;;;;;;;18.53;36.77;100319.19;5084123;28;20396;-75
2022/04/24 11:04:07;;;;;;;12.07;10.63;;;;;;;18.55;36.29;100314.66;5072667;28;20025;-75
2022/04/24 11:06:32;;;;;;;11.88;8.57;;;;;;;18.63;35.85;100317.63;5071615;28;20051;-75
2022/04/24 11:09:09;;;;;;;9.52;8.55;;;;;;;18.82;36.21;100312.88;5080307;28;20201;-74
2022/04/24 11:11:45;;;;;;;11.30;10.10;;;;;;;18.93;35.66;100309.50;5090379;28;20020;-74
2022/04/24 11:14:10;;;;;;;11.05;8.73;;;;;;;19.07;36.00;100308.59;5076000;28;20127;-75
2022/04/24 11:16:35;;;;;;;11.25;9.07;;;;;;;19.10;36.23;100303.97;5089250;28;20123;-75
2022/04/24 11:19:00;;;;;;;10.10;8.65;;;;;;;19.13;35.66;100301.13;5080953;28;20051;-75